Time;durP1;ratioP1;P1;durP2;ratioP2;P2;SDS_P1;SDS_P2;PMS_P1;PMS_P2;Temp;Humidity;BMP_temperature;BMP_pressure;BME280_temperature;BME280_humidity;BME280_pressure;Samples;Min_cycle;Max_cycle;Signal;HPM_P1;HPM_P2
2023/09/05 00:01:33;;;;;;;0.20;0.10;;;;;;;;;;4967887;28;20054;-80
2023/09/05 00:03:59;;;;;;;0.20;0.10;;;;;;;;;;4958229;28;20091;-80
2023/09/05 00:06:25;;;;;;;0.20;0.00;;;;;;;;;;4960747;28;20270;-80
2023/09/05 00:08:51;;;;;;;0.20;0.10;;;;;;;;;;4957443;28;20042;-80
2023/09/05 00:11:17;;;;;;;0.20;0.05;;;;;;;;;;4954607;28;20325;-80
2023/09/05 00:13:43;;;;;;;0.20;0.10;;;;;;;;;;4951684;28;20038;-80
2023/09/05 00:16:09;;;;;;;0.30;0.30;;;;;;;;;;4955294;28;20580;-79
2023/09/05 00:18:35;;;;;;;0.20;0.10;;;;;;;;;;4976039;28;20033;-81
2023/09/05 00:21:01;;;;;;;0.30;0.22;;;;;;;;;;4958744;28;20549;-81
2023/09/05 00:23:27;;;;;;;1.05;0.35;;;;;;;;;;4975058;28;21186;-80
2023/09/05 00:25:53;;;;;;;0.20;0.10;;;;;;;;;;4972214;28;20193;-80
2023/09/05 00:28:19;;;;;;;0.20;0.20;;;;;;;;;;4983211;28;20183;-80
2023/09/05 00:30:45;;;;;;;0.45;0.22;;;;;;;;;;4959677;28;20087;-81
2023/09/05 00:33:11;;;;;;;0.75;0.20;;;;;;;;;;4952665;28;20099;-81
2023/09/05 00:35:37;;;;;;;0.20;0.00;;;;;;;;;;4970565;28;20400;-82
2023/09/05 00:38:04;;;;;;;0.50;0.25;;;;;;;;;;4954738;28;20038;-80
2023/09/05 00:40:30;;;;;;;0.32;0.32;;;;;;;;;;4962409;28;20170;-81
2023/09/05 00:42:56;;;;;;;0.20;0.10;;;;;;;;;;4975444;28;20426;-80
2023/09/05 00:45:22;;;;;;;0.30;0.20;;;;;;;;;;4976740;28;20414;-82
2023/09/05 00:47:48;;;;;;;0.57;0.50;;;;;;;;;;4969898;28;20121;-81
2023/09/05 00:50:17;;;;;;;0.20;0.00;;;;;;;;;;4973215;28;20042;-80
2023/09/05 00:52:44;;;;;;;0.20;0.08;;;;;;;;;;4956053;28;20026;-80
2023/09/05 00:55:10;;;;;;;0.85;0.65;;;;;;;;;;4982755;28;20065;-80
2023/09/05 00:57:36;;;;;;;0.20;0.08;;;;;;;;;;4961408;28;20062;-81
2023/09/05 01:00:04;;;;;;;0.20;0.00;;;;;;;;;;4959222;28;20054;-80
2023/09/05 01:02:30;;;;;;;0.35;0.28;;;;;;;;;;4982813;28;20077;-82
2023/09/05 01:04:56;;;;;;;0.82;0.22;;;;;;;;;;4976734;28;20108;-82
2023/09/05 01:07:41;;;;;;;0.20;0.10;;;;;;;;;;4964024;28;20073;-81
2023/09/05 01:10:11;;;;;;;0.20;0.10;;;;;;;;;;4965283;28;20188;-80
2023/09/05 01:12:37;;;;;;;0.40;0.10;;;;;;;;;;4963011;28;20065;-80
2023/09/05 01:15:04;;;;;;;0.57;0.57;;;;;;;;;;4959093;28;20072;-80
2023/09/05 01:17:30;;;;;;;0.35;0.17;;;;;;;;;;4984648;28;20458;-81
2023/09/05 01:19:58;;;;;;;0.68;0.30;;;;;;;;;;4960661;28;20132;-81
2023/09/05 01:22:24;;;;;;;0.40;0.22;;;;;;;;;;4967850;28;20038;-82
2023/09/05 01:24:50;;;;;;;0.20;0.20;;;;;;;;;;4979279;28;20038;-80
2023/09/05 01:27:17;;;;;;;0.20;0.10;;;;;;;;;;4977758;28;20128;-80
2023/09/05 01:29:44;;;;;;;0.20;0.00;;;;;;;;;;4974187;28;20398;-80
2023/09/05 01:32:10;;;;;;;0.20;0.10;;;;;;;;;;4964560;28;20069;-81
2023/09/05 01:34:36;;;;;;;0.60;0.60;;;;;;;;;;4975947;28;20046;-82
2023/09/05 01:37:02;;;;;;;0.20;0.20;;;;;;;;;;4958197;28;20504;-79
2023/09/05 01:39:28;;;;;;;0.32;0.32;;;;;;;;;;4950999;28;20485;-82
2023/09/05 01:41:55;;;;;;;0.52;0.22;;;;;;;;;;4959606;28;20049;-81
2023/09/05 01:44:20;;;;;;;0.20;0.10;;;;;;;;;;4980537;28;20514;-82
2023/09/05 01:46:46;;;;;;;0.32;0.30;;;;;;;;;;4984901;28;20135;-81
2023/09/05 01:49:13;;;;;;;0.57;0.32;;;;;;;;;;4964113;28;20164;-82
2023/09/05 01:51:39;;;;;;;0.40;0.30;;;;;;;;;;4983329;28;20125;-81
2023/09/05 01:54:05;;;;;;;0.20;0.10;;;;;;;;;;4982381;28;20038;-82
2023/09/05 01:56:31;;;;;;;0.55;0.35;;;;;;;;;;4959383;28;20057;-80
2023/09/05 01:58:57;;;;;;;0.20;0.10;;;;;;;;;;4958180;28;20089;-80
2023/09/05 02:01:23;;;;;;;0.20;0.10;;;;;;;;;;4978196;28;20757;-81
2023/09/05 02:03:49;;;;;;;0.25;0.22;;;;;;;;;;4953654;28;20048;-81
2023/09/05 02:06:15;;;;;;;0.20;0.10;;;;;;;;;;4960536;28;20037;-79
2023/09/05 02:08:41;;;;;;;0.30;0.10;;;;;;;;;;4981167;28;20052;-81
2023/09/05 02:11:11;;;;;;;0.20;0.10;;;;;;;;;;4988321;28;20037;-80
2023/09/05 02:13:37;;;;;;;0.20;0.10;;;;;;;;;;4962456;28;20045;-81
2023/09/05 02:16:03;;;;;;;0.50;0.50;;;;;;;;;;4983620;28;20582;-80
2023/09/05 02:18:29;;;;;;;0.30;0.15;;;;;;;;;;4997340;28;20092;-79
2023/09/05 02:21:00;;;;;;;0.20;0.10;;;;;;;;;;4957801;28;20131;-79
2023/09/05 02:23:26;;;;;;;0.20;0.10;;;;;;;;;;4978926;28;20585;-79
2023/09/05 02:26:02;;;;;;;0.20;0.10;;;;;;;;;;4974720;28;20056;-79
2023/09/05 02:28:28;;;;;;;0.20;0.10;;;;;;;;;;4970716;28;20109;-81
2023/09/05 02:30:55;;;;;;;0.20;0.10;;;;;;;;;;4974794;28;20041;-80
2023/09/05 02:33:22;;;;;;;0.20;0.10;;;;;;;;;;4974145;23;20142;-84
2023/09/05 02:35:48;;;;;;;0.20;0.20;;;;;;;;;;4970738;28;20042;-84
2023/09/05 02:38:15;;;;;;;0.20;0.10;;;;;;;;;;4975093;28;20041;-85
2023/09/05 02:40:45;;;;;;;0.20;0.00;;;;;;;;;;4983889;28;20045;-83
2023/09/05 02:43:11;;;;;;;0.30;0.30;;;;;;;;;;4980025;28;20048;-85
2023/09/05 02:45:37;;;;;;;0.60;0.40;;;;;;;;;;4955150;28;20043;-84
2023/09/05 02:48:03;;;;;;;0.20;0.00;;;;;;;;;;4966995;28;20038;-84
2023/09/05 02:50:29;;;;;;;0.20;0.10;;;;;;;;;;4980035;28;20045;-85
2023/09/05 02:52:55;;;;;;;0.32;0.22;;;;;;;;;;4963735;28;20033;-85
2023/09/05 02:55:21;;;;;;;0.43;0.15;;;;;;;;;;4955758;28;20160;-84
2023/09/05 02:57:47;;;;;;;0.20;0.10;;;;;;;;;;4950545;28;20180;-85
2023/09/05 03:00:15;;;;;;;0.20;0.10;;;;;;;;;;4963198;28;20045;-85
2023/09/05 03:02:42;;;;;;;0.20;0.17;;;;;;;;;;4957186;28;20136;-85
2023/09/05 03:05:08;;;;;;;0.70;0.25;;;;;;;;;;4974190;28;20060;-86
2023/09/05 03:07:34;;;;;;;0.30;0.15;;;;;;;;;;4969067;28;20089;-84
2023/09/05 03:10:00;;;;;;;0.20;0.15;;;;;;;;;;4973865;28;22228;-85
2023/09/05 03:12:26;;;;;;;0.40;0.40;;;;;;;;;;4952799;28;20128;-83
2023/09/05 03:14:52;;;;;;;0.38;0.25;;;;;;;;;;4974459;28;20041;-86
2023/09/05 03:17:18;;;;;;;0.20;0.10;;;;;;;;;;4976346;28;20406;-84
2023/09/05 03:19:44;;;;;;;0.68;0.28;;;;;;;;;;4973792;28;20042;-84
2023/09/05 03:22:10;;;;;;;0.20;0.10;;;;;;;;;;4968956;28;20053;-85
2023/09/05 03:24:36;;;;;;;1.02;0.52;;;;;;;;;;4974687;28;20057;-84
2023/09/05 03:27:03;;;;;;;0.30;0.20;;;;;;;;;;4976881;28;20041;-85
2023/09/05 03:29:29;;;;;;;0.40;0.17;;;;;;;;;;4959230;28;20465;-84
2023/09/05 03:31:55;;;;;;;0.20;0.10;;;;;;;;;;4971753;28;20557;-85
2023/09/05 03:34:22;;;;;;;0.20;0.10;;;;;;;;;;4966461;28;20128;-83
2023/09/05 03:36:49;;;;;;;0.32;0.32;;;;;;;;;;4958307;28;20486;-84
2023/09/05 03:39:15;;;;;;;0.20;0.10;;;;;;;;;;4954923;28;20038;-84
2023/09/05 03:41:41;;;;;;;0.20;0.10;;;;;;;;;;4958501;28;20042;-85
2023/09/05 03:44:07;;;;;;;0.20;0.10;;;;;;;;;;4957012;28;20133;-86
2023/09/05 03:46:34;;;;;;;2.35;0.43;;;;;;;;;;4963010;28;20072;-85
2023/09/05 03:49:00;;;;;;;0.20;0.10;;;;;;;;;;4975939;28;20521;-85
2023/09/05 03:51:28;;;;;;;0.20;0.10;;;;;;;;;;4977184;28;20574;-84
2023/09/05 03:53:54;;;;;;;0.30;0.22;;;;;;;;;;4951390;28;20221;-84
2023/09/05 03:56:21;;;;;;;0.20;0.10;;;;;;;;;;4956793;28;20046;-84
2023/09/05 03:58:47;;;;;;;0.20;0.10;;;;;;;;;;4951297;28;20555;-85
2023/09/05 04:01:14;;;;;;;0.20;0.20;;;;;;;;;;4954196;28;20418;-84
2023/09/05 04:03:40;;;;;;;0.60;0.30;;;;;;;;;;4960424;28;20046;-84
2023/09/05 04:06:06;;;;;;;0.20;0.15;;;;;;;;;;4958692;28;20054;-84
2023/09/05 04:08:32;;;;;;;0.75;0.43;;;;;;;;;;4952068;28;20290;-85
2023/09/05 04:10:59;;;;;;;0.20;0.10;;;;;;;;;;4954468;28;20041;-84
2023/09/05 04:13:26;;;;;;;0.20;0.10;;;;;;;;;;4976996;28;20095;-85
2023/09/05 04:15:52;;;;;;;0.20;0.10;;;;;;;;;;4957770;28;20710;-85
2023/09/05 04:18:18;;;;;;;0.30;0.20;;;;;;;;;;4978102;28;20462;-84
2023/09/05 04:20:44;;;;;;;0.20;0.03;;;;;;;;;;4953171;28;20065;-84
2023/09/05 04:23:10;;;;;;;0.32;0.20;;;;;;;;;;4969660;28;20030;-84
2023/09/05 04:25:39;;;;;;;0.20;0.10;;;;;;;;;;4951631;28;20042;-83
2023/09/05 04:28:06;;;;;;;0.25;0.10;;;;;;;;;;4955795;28;20038;-84
2023/09/05 04:30:33;;;;;;;0.20;0.10;;;;;;;;;;4957250;28;20478;-84
2023/09/05 04:33:00;;;;;;;0.20;0.10;;;;;;;;;;4968469;28;20041;-83
2023/09/05 04:35:27;;;;;;;0.20;0.10;;;;;;;;;;4953099;28;21164;-85
2023/09/05 04:37:53;;;;;;;0.43;0.20;;;;;;;;;;4953609;28;20450;-83
2023/09/05 04:40:19;;;;;;;0.20;0.10;;;;;;;;;;4954251;28;20045;-84
2023/09/05 04:42:45;;;;;;;0.20;0.10;;;;;;;;;;4949562;28;20050;-84
2023/09/05 04:45:11;;;;;;;0.20;0.10;;;;;;;;;;4967269;28;20139;-85
2023/09/05 04:47:40;;;;;;;0.20;0.17;;;;;;;;;;4972874;28;20625;-83
2023/09/05 04:50:10;;;;;;;0.20;0.10;;;;;;;;;;4959088;28;20038;-85
2023/09/05 04:52:36;;;;;;;0.20;0.10;;;;;;;;;;4977114;28;20063;-83
2023/09/05 04:55:02;;;;;;;0.20;0.10;;;;;;;;;;4968779;28;20042;-84
2023/09/05 04:57:29;;;;;;;0.20;0.13;;;;;;;;;;4966543;28;20042;-83
2023/09/05 04:59:59;;;;;;;0.40;0.28;;;;;;;;;;4955577;28;20042;-84
2023/09/05 05:02:26;;;;;;;0.20;0.20;;;;;;;;;;4969976;28;20124;-83
2023/09/05 05:04:52;;;;;;;0.20;0.13;;;;;;;;;;4963299;28;20099;-83
2023/09/05 05:07:18;;;;;;;0.40;0.30;;;;;;;;;;4964036;28;20050;-82
2023/09/05 05:09:45;;;;;;;0.30;0.30;;;;;;;;;;4955873;28;20034;-82
2023/09/05 05:12:11;;;;;;;0.50;0.38;;;;;;;;;;4975001;28;20041;-82
2023/09/05 05:14:37;;;;;;;0.20;0.13;;;;;;;;;;4974747;28;20065;-84
2023/09/05 05:17:03;;;;;;;0.40;0.10;;;;;;;;;;4976359;28;20746;-84
2023/09/05 05:19:29;;;;;;;0.20;0.10;;;;;;;;;;4953598;28;20054;-84
2023/09/05 05:21:56;;;;;;;0.30;0.28;;;;;;;;;;4970021;28;20045;-83
2023/09/05 05:24:22;;;;;;;0.20;0.05;;;;;;;;;;4957027;28;20046;-84
2023/09/05 05:26:49;;;;;;;0.20;0.20;;;;;;;;;;4950816;28;20060;-84
2023/09/05 05:29:15;;;;;;;0.30;0.15;;;;;;;;;;4952255;28;20517;-84
2023/09/05 05:31:41;;;;;;;0.20;0.10;;;;;;;;;;4960995;28;20052;-84
2023/09/05 05:34:07;;;;;;;0.20;0.10;;;;;;;;;;4959747;28;20141;-84
2023/09/05 05:36:34;;;;;;;0.20;0.10;;;;;;;;;;4962441;28;20046;-84
2023/09/05 05:39:00;;;;;;;0.40;0.40;;;;;;;;;;4981524;28;20194;-84
2023/09/05 05:41:27;;;;;;;0.38;0.20;;;;;;;;;;4988907;28;20072;-84
2023/09/05 05:43:53;;;;;;;0.20;0.10;;;;;;;;;;4950945;28;20038;-84
2023/09/05 05:46:19;;;;;;;0.20;0.10;;;;;;;;;;4982874;28;20077;-85
2023/09/05 05:48:46;;;;;;;0.20;0.10;;;;;;;;;;4959842;28;20103;-84
2023/09/05 05:51:12;;;;;;;0.20;0.10;;;;;;;;;;4967845;28;20665;-85
2023/09/05 05:53:38;;;;;;;0.20;0.17;;;;;;;;;;4990348;28;20465;-85
2023/09/05 05:56:05;;;;;;;0.20;0.13;;;;;;;;;;4990509;28;20073;-84
2023/09/05 05:58:31;;;;;;;0.20;0.00;;;;;;;;;;4992298;28;20042;-85
2023/09/05 06:00:57;;;;;;;0.25;0.20;;;;;;;;;;4971670;28;20045;-85
2023/09/05 06:03:24;;;;;;;0.20;0.10;;;;;;;;;;4986721;28;20181;-85
2023/09/05 06:05:50;;;;;;;0.20;0.10;;;;;;;;;;4975207;28;20449;-84
2023/09/05 06:08:16;;;;;;;0.20;0.10;;;;;;;;;;4989301;28;20037;-86
2023/09/05 06:10:43;;;;;;;0.30;0.25;;;;;;;;;;4987187;28;20910;-84
2023/09/05 06:13:09;;;;;;;0.43;0.30;;;;;;;;;;4985288;28;20565;-85
2023/09/05 06:15:35;;;;;;;0.30;0.20;;;;;;;;;;4987827;28;20048;-85
2023/09/05 06:18:02;;;;;;;0.20;0.00;;;;;;;;;;4988766;28;20045;-85
2023/09/05 06:20:28;;;;;;;0.30;0.10;;;;;;;;;;5003665;28;20543;-84
2023/09/05 06:22:57;;;;;;;0.20;0.10;;;;;;;;;;4972604;28;20113;-85
2023/09/05 06:25:24;;;;;;;0.20;0.10;;;;;;;;;;4988202;28;20491;-84
2023/09/05 06:27:50;;;;;;;0.20;0.10;;;;;;;;;;4987919;28;20054;-84
2023/09/05 06:30:16;;;;;;;0.20;0.10;;;;;;;;;;4972962;28;20116;-84
2023/09/05 06:32:43;;;;;;;0.20;0.00;;;;;;;;;;4965834;28;20034;-86
2023/09/05 06:35:09;;;;;;;0.20;0.10;;;;;;;;;;4977826;28;20740;-84
2023/09/05 06:37:36;;;;;;;0.30;0.20;;;;;;;;;;4959527;28;20084;-85
2023/09/05 06:40:12;;;;;;;0.38;0.20;;;;;;;;;;4953671;28;20048;-85
2023/09/05 06:42:41;;;;;;;0.65;0.35;;;;;;;;;;4975744;28;20498;-84
2023/09/05 06:45:08;;;;;;;0.20;0.08;;;;;;;;;;4980007;28;20041;-85
2023/09/05 06:47:34;;;;;;;0.20;0.00;;;;;;;;;;4980133;28;20049;-86
2023/09/05 06:50:00;;;;;;;0.20;0.00;;;;;;;;;;4977619;28;20048;-86
2023/09/05 06:52:26;;;;;;;0.20;0.10;;;;;;;;;;4959558;28;20100;-85
2023/09/05 06:54:52;;;;;;;0.20;0.10;;;;;;;;;;4962021;28;20040;-85
2023/09/05 06:57:19;;;;;;;0.30;0.15;;;;;;;;;;4979874;28;20034;-85
2023/09/05 06:59:46;;;;;;;0.35;0.20;;;;;;;;;;4956996;28;20136;-85
2023/09/05 07:02:12;;;;;;;0.20;0.03;;;;;;;;;;4976270;28;20045;-85
2023/09/05 07:04:38;;;;;;;0.20;0.10;;;;;;;;;;4983390;28;20038;-84
2023/09/05 07:07:04;;;;;;;0.55;0.35;;;;;;;;;;4968689;28;20220;-85
2023/09/05 07:09:31;;;;;;;0.20;0.10;;;;;;;;;;4967148;28;20463;-85
2023/09/05 07:11:57;;;;;;;0.57;0.20;;;;;;;;;;4968105;28;20048;-85
2023/09/05 07:14:23;;;;;;;0.20;0.00;;;;;;;;;;4977773;28;20407;-86
2023/09/05 07:16:52;;;;;;;0.25;0.10;;;;;;;;;;4986531;28;20339;-85
2023/09/05 07:19:18;;;;;;;0.20;0.10;;;;;;;;;;4983840;28;20041;-85
2023/09/05 07:21:45;;;;;;;0.30;0.20;;;;;;;;;;4964759;28;20049;-85
2023/09/05 07:24:15;;;;;;;0.20;0.10;;;;;;;;;;4964329;28;20410;-85
2023/09/05 07:26:45;;;;;;;0.20;0.10;;;;;;;;;;4968565;28;20521;-85
2023/09/05 07:29:12;;;;;;;0.65;0.30;;;;;;;;;;4981483;28;20038;-86
2023/09/05 07:31:41;;;;;;;0.20;0.10;;;;;;;;;;4981722;28;20099;-85
2023/09/05 07:34:08;;;;;;;0.20;0.08;;;;;;;;;;4965889;28;20650;-85
2023/09/05 07:36:35;;;;;;;0.20;0.08;;;;;;;;;;4965592;28;20084;-85
2023/09/05 07:39:03;;;;;;;0.20;0.10;;;;;;;;;;4986174;28;20532;-86
2023/09/05 07:41:30;;;;;;;0.20;0.10;;;;;;;;;;5003462;28;20069;-85
2023/09/05 07:43:56;;;;;;;0.20;0.10;;;;;;;;;;4964230;28;20042;-84
2023/09/05 07:46:22;;;;;;;0.20;0.10;;;;;;;;;;4981500;28;20042;-85
2023/09/05 07:48:48;;;;;;;0.20;0.10;;;;;;;;;;4971312;28;20045;-85
2023/09/05 07:51:14;;;;;;;0.20;0.10;;;;;;;;;;4983422;28;20045;-85
2023/09/05 07:53:48;;;;;;;0.20;0.05;;;;;;;;;;4975723;28;20136;-85
2023/09/05 07:56:14;;;;;;;0.20;0.10;;;;;;;;;;4977793;28;20438;-84
2023/09/05 07:58:41;;;;;;;0.20;0.10;;;;;;;;;;4970257;28;20042;-85
2023/09/05 08:01:09;;;;;;;0.20;0.00;;;;;;;;;;4980595;28;20326;-84
2023/09/05 08:03:35;;;;;;;0.20;0.10;;;;;;;;;;4986219;28;20045;-86
2023/09/05 08:06:01;;;;;;;0.20;0.10;;;;;;;;;;4969400;28;20046;-84
2023/09/05 08:08:27;;;;;;;0.20;0.10;;;;;;;;;;4966891;28;20045;-85
2023/09/05 08:10:53;;;;;;;0.20;0.03;;;;;;;;;;4982497;28;20395;-84
2023/09/05 08:13:19;;;;;;;0.20;0.00;;;;;;;;;;4975574;28;20049;-85
2023/09/05 08:15:51;;;;;;;0.20;0.10;;;;;;;;;;4967669;28;20042;-85
2023/09/05 08:18:18;;;;;;;0.20;0.00;;;;;;;;;;4967636;28;20214;-85
2023/09/05 08:20:44;;;;;;;0.20;0.10;;;;;;;;;;4963121;28;20038;-85
2023/09/05 08:23:10;;;;;;;0.20;0.10;;;;;;;;;;4983713;28;20614;-85
2023/09/05 08:25:36;;;;;;;0.20;0.10;;;;;;;;;;4966754;28;20237;-85
2023/09/05 08:28:03;;;;;;;0.38;0.30;;;;;;;;;;4965097;28;20046;-85
2023/09/05 08:30:29;;;;;;;0.20;0.20;;;;;;;;;;4962162;28;20045;-84
2023/09/05 08:32:56;;;;;;;0.25;0.25;;;;;;;;;;4979165;28;20038;-85
2023/09/05 08:35:22;;;;;;;0.52;0.20;;;;;;;;;;4985118;23;20091;-80
2023/09/05 08:37:48;;;;;;;0.20;0.10;;;;;;;;;;4994291;28;20049;-80
2023/09/05 08:40:15;;;;;;;0.30;0.30;;;;;;;;;;4992120;28;20076;-79
2023/09/05 08:42:42;;;;;;;0.20;0.15;;;;;;;;;;4987694;28;20037;-80
2023/09/05 08:45:12;;;;;;;0.20;0.10;;;;;;;;;;4973156;28;20140;-80
2023/09/05 08:47:39;;;;;;;0.20;0.10;;;;;;;;;;4978134;28;20599;-79
2023/09/05 08:50:06;;;;;;;0.57;0.28;;;;;;;;;;4984576;28;20133;-79
2023/09/05 08:52:33;;;;;;;0.20;0.17;;;;;;;;;;4977412;28;20061;-81
2023/09/05 08:55:02;;;;;;;0.20;0.00;;;;;;;;;;4963063;28;20079;-79
2023/09/05 08:57:28;;;;;;;0.20;0.10;;;;;;;;;;4984874;28;20092;-79
2023/09/05 08:59:54;;;;;;;0.30;0.10;;;;;;;;;;4980989;28;20133;-81
2023/09/05 09:02:20;;;;;;;0.20;0.00;;;;;;;;;;4970367;28;20498;-81
2023/09/05 09:04:55;;;;;;;0.20;0.10;;;;;;;;;;4977490;28;20822;-80
2023/09/05 09:07:27;;;;;;;0.20;0.03;;;;;;;;;;5000626;28;20041;-82
2023/09/05 09:09:53;;;;;;;0.20;0.10;;;;;;;;;;4978523;28;20066;-82
2023/09/05 09:12:26;;;;;;;0.20;0.10;;;;;;;;;;4986271;28;20049;-80
2023/09/05 09:14:53;;;;;;;0.50;0.25;;;;;;;;;;4983386;28;20041;-87
2023/09/05 09:17:19;;;;;;;0.20;0.10;;;;;;;;;;4977257;28;20076;-81
2023/09/05 09:19:47;;;;;;;0.20;0.10;;;;;;;;;;4964231;28;20042;-84
2023/09/05 09:22:13;;;;;;;0.20;0.10;;;;;;;;;;4980916;28;20534;-84
2023/09/05 09:24:39;;;;;;;0.20;0.10;;;;;;;;;;4987366;28;20049;-81
2023/09/05 09:27:06;;;;;;;0.20;0.10;;;;;;;;;;4979248;28;20065;-82
2023/09/05 09:29:33;;;;;;;0.20;0.10;;;;;;;;;;4974708;28;20096;-82
2023/09/05 09:32:04;;;;;;;0.20;0.10;;;;;;;;;;4983624;28;20037;-81
2023/09/05 09:34:31;;;;;;;0.20;0.10;;;;;;;;;;4981184;28;20042;-81
2023/09/05 09:36:58;;;;;;;0.20;0.15;;;;;;;;;;4981399;28;20080;-83
2023/09/05 09:39:25;;;;;;;0.20;0.00;;;;;;;;;;4978878;28;20049;-84
2023/09/05 09:41:51;;;;;;;0.20;0.03;;;;;;;;;;4983251;28;20608;-82
2023/09/05 09:44:47;;;;;;;0.40;0.17;;;;;;;;;;4980586;28;20049;-81
2023/09/05 09:47:13;;;;;;;0.68;0.32;;;;;;;;;;4959623;28;20696;-80
2023/09/05 09:49:42;;;;;;;0.20;0.00;;;;;;;;;;4975544;28;20279;-80
2023/09/05 09:52:12;;;;;;;0.20;0.05;;;;;;;;;;4989421;28;20045;-81
2023/09/05 09:54:39;;;;;;;0.20;0.10;;;;;;;;;;4992058;28;20637;-81
2023/09/05 09:57:05;;;;;;;0.20;0.15;;;;;;;;;;4994583;28;20049;-81
2023/09/05 09:59:36;;;;;;;0.30;0.17;;;;;;;;;;4992977;28;20582;-81
2023/09/05 10:02:07;;;;;;;0.20;0.10;;;;;;;;;;4985991;28;20064;-81
2023/09/05 10:04:34;;;;;;;0.20;0.00;;;;;;;;;;4972959;28;20262;-82
2023/09/05 10:07:00;;;;;;;0.38;0.20;;;;;;;;;;4986439;28;20045;-80
2023/09/05 10:09:30;;;;;;;0.20;0.10;;;;;;;;;;4988653;28;20056;-83
2023/09/05 10:11:56;;;;;;;0.20;0.10;;;;;;;;;;4982965;28;20790;-81
2023/09/05 10:14:22;;;;;;;0.20;0.13;;;;;;;;;;4996162;28;20069;-79
2023/09/05 10:16:49;;;;;;;0.20;0.10;;;;;;;;;;4980132;28;20557;-81
2023/09/05 10:19:16;;;;;;;0.20;0.10;;;;;;;;;;4988545;28;20088;-80
2023/09/05 10:21:43;;;;;;;0.20;0.00;;;;;;;;;;4985574;28;20042;-81
2023/09/05 10:24:10;;;;;;;0.20;0.00;;;;;;;;;;4989984;28;20038;-81
2023/09/05 10:26:36;;;;;;;0.20;0.10;;;;;;;;;;4998783;28;20160;-81
2023/09/05 10:29:22;;;;;;;0.20;0.10;;;;;;;;;;4988757;28;20048;-81
2023/09/05 10:31:49;;;;;;;0.20;0.10;;;;;;;;;;4990667;28;20037;-81
2023/09/05 10:34:15;;;;;;;0.43;0.28;;;;;;;;;;4984814;28;20041;-86
2023/09/05 10:36:42;;;;;;;0.20;0.10;;;;;;;;;;4981667;28;20033;-82
2023/09/05 10:39:34;;;;;;;0.30;0.10;;;;;;;;;;4985365;28;20041;-84
2023/09/05 10:42:01;;;;;;;;;;;;;;;;;;4960555;28;20060;-87
2023/09/05 10:44:29;;;;;;;0.20;0.00;;;;;;;;;;4983312;28;19964;-81
2023/09/05 10:46:55;;;;;;;0.85;0.38;;;;;;;;;;4991869;28;20122;-82
2023/09/05 10:49:22;;;;;;;0.20;0.10;;;;;;;;;;4988973;28;20048;-84
2023/09/05 10:52:07;;;;;;;0.43;0.20;;;;;;;;;;4990326;28;20042;-84
2023/09/05 10:54:34;;;;;;;0.20;0.10;;;;;;;;;;4989716;28;20615;-82
2023/09/05 10:57:03;;;;;;;0.20;0.10;;;;;;;;;;4984043;28;20046;-82
2023/09/05 10:59:30;;;;;;;0.20;0.00;;;;;;;;;;4987733;28;20053;-85
2023/09/05 11:02:05;;;;;;;0.20;0.10;;;;;;;;;;4993326;28;20310;-82
2023/09/05 11:04:34;;;;;;;0.20;0.10;;;;;;;;;;4993767;28;20049;-83
2023/09/05 11:07:04;;;;;;;0.20;0.00;;;;;;;;;;4994756;28;20100;-82
2023/09/05 11:09:39;;;;;;;0.20;0.20;;;;;;;;;;4987159;28;20034;-80
2023/09/05 11:12:06;;;;;;;0.25;0.17;;;;;;;;;;4969674;28;22135;-81
2023/09/05 11:14:33;;;;;;;0.20;0.10;;;;;;;;;;4978770;28;20050;-82
2023/09/05 11:16:59;;;;;;;0.20;0.10;;;;;;;;;;4962123;28;20045;-82
2023/09/05 11:19:28;;;;;;;0.73;0.22;;;;;;;;;;4966137;28;20041;-82
2023/09/05 11:22:10;;;;;;;0.20;0.10;;;;;;;;;;4973069;28;20046;-83
2023/09/05 11:24:38;;;;;;;0.32;0.30;;;;;;;;;;4985631;28;20072;-83
2023/09/05 11:27:06;;;;;;;0.20;0.10;;;;;;;;;;4989562;28;20045;-82
2023/09/05 11:29:33;;;;;;;0.20;0.10;;;;;;;;;;4979713;28;20624;-84
2023/09/05 11:31:59;;;;;;;0.20;0.10;;;;;;;;;;4986406;28;20502;-83
2023/09/05 11:34:27;;;;;;;0.20;0.10;;;;;;;;;;4989829;28;20057;-82
2023/09/05 11:36:53;;;;;;;0.20;0.10;;;;;;;;;;4990381;28;20042;-83
2023/09/05 11:39:27;;;;;;;0.20;0.10;;;;;;;;;;4996533;28;20038;-82
2023/09/05 11:41:58;;;;;;;0.20;0.10;;;;;;;;;;4998229;28;20045;-81
2023/09/05 11:44:39;;;;;;;0.20;0.10;;;;;;;;;;4987805;28;20255;-84
2023/09/05 11:47:06;;;;;;;0.20;0.10;;;;;;;;;;4989500;28;20103;-82
2023/09/05 11:49:33;;;;;;;0.73;0.20;;;;;;;;;;4991174;28;20042;-82
2023/09/05 11:52:00;;;;;;;0.20;0.13;;;;;;;;;;4972903;28;20081;-82
2023/09/05 11:54:27;;;;;;;0.20;0.10;;;;;;;;;;4981802;28;20038;-81
2023/09/05 11:56:53;;;;;;;0.20;0.10;;;;;;;;;;4984469;28;20050;-82
2023/09/05 11:59:19;;;;;;;0.20;0.10;;;;;;;;;;4979518;28;20033;-82
2023/09/05 12:01:45;;;;;;;0.20;0.10;;;;;;;;;;4981491;28;20525;-84
2023/09/05 12:04:11;;;;;;;0.20;0.10;;;;;;;;;;4981544;28;20046;-81
2023/09/05 12:06:37;;;;;;;0.20;0.10;;;;;;;;;;4977895;28;20430;-84
2023/09/05 12:09:04;;;;;;;0.38;0.10;;;;;;;;;;4981457;28;20033;-83
2023/09/05 12:11:30;;;;;;;0.20;0.00;;;;;;;;;;4963212;28;20410;-83
2023/09/05 12:13:56;;;;;;;0.30;0.20;;;;;;;;;;4983717;28;20029;-84
2023/09/05 12:16:23;;;;;;;0.25;0.17;;;;;;;;;;4980401;28;20033;-82
2023/09/05 12:18:49;;;;;;;0.20;0.10;;;;;;;;;;4983903;28;20038;-83
2023/09/05 12:21:15;;;;;;;0.20;0.10;;;;;;;;;;4983317;28;20042;-82
2023/09/05 12:23:42;;;;;;;0.20;0.10;;;;;;;;;;4976838;28;20038;-82
2023/09/05 12:26:08;;;;;;;0.20;0.10;;;;;;;;;;4972453;28;20045;-83
2023/09/05 12:28:34;;;;;;;0.20;0.10;;;;;;;;;;4981314;28;20046;-83
2023/09/05 12:31:07;;;;;;;0.20;0.10;;;;;;;;;;4979592;28;20042;-82
2023/09/05 12:33:33;;;;;;;0.20;0.10;;;;;;;;;;4990304;28;20053;-83
2023/09/05 12:35:59;;;;;;;0.20;0.10;;;;;;;;;;4983862;28;20392;-82
2023/09/05 12:38:28;;;;;;;0.20;0.10;;;;;;;;;;4987620;28;20458;-82
2023/09/05 12:40:54;;;;;;;0.20;0.10;;;;;;;;;;4983102;28;20491;-82
2023/09/05 12:43:20;;;;;;;0.20;0.13;;;;;;;;;;4986387;28;20528;-82
2023/09/05 12:45:51;;;;;;;0.20;0.10;;;;;;;;;;4986667;28;20112;-82
2023/09/05 12:48:17;;;;;;;0.20;0.10;;;;;;;;;;4987310;28;20045;-82
2023/09/05 12:50:46;;;;;;;0.20;0.00;;;;;;;;;;4994268;28;20046;-82
2023/09/05 12:53:13;;;;;;;0.20;0.08;;;;;;;;;;4999084;28;20453;-81
2023/09/05 12:55:39;;;;;;;0.20;0.10;;;;;;;;;;4987634;28;20045;-82
2023/09/05 12:58:06;;;;;;;0.20;0.10;;;;;;;;;;4983292;28;20052;-82
2023/09/05 13:00:33;;;;;;;0.20;0.08;;;;;;;;;;4975578;28;20734;-83
2023/09/05 13:03:00;;;;;;;0.20;0.10;;;;;;;;;;4989185;28;20128;-82
2023/09/05 13:05:28;;;;;;;0.20;0.10;;;;;;;;;;4968980;28;20087;-82
2023/09/05 13:07:54;;;;;;;0.20;0.10;;;;;;;;;;4981401;28;20382;-88
2023/09/05 13:10:23;;;;;;;0.20;0.10;;;;;;;;;;4978918;28;20046;-86
2023/09/05 13:12:51;;;;;;;0.20;0.00;;;;;;;;;;4985666;28;20371;-84
2023/09/05 13:15:17;;;;;;;0.25;0.10;;;;;;;;;;4981967;28;20046;-82
2023/09/05 13:17:45;;;;;;;0.20;0.00;;;;;;;;;;4969047;28;20042;-83
2023/09/05 13:20:14;;;;;;;0.20;0.10;;;;;;;;;;4973578;28;20807;-82
2023/09/05 13:22:44;;;;;;;0.20;0.10;;;;;;;;;;4989495;28;20065;-82
2023/09/05 13:25:10;;;;;;;0.20;0.10;;;;;;;;;;4970355;28;20384;-81
2023/09/05 13:27:36;;;;;;;0.20;0.00;;;;;;;;;;4980331;28;20051;-82
2023/09/05 13:30:04;;;;;;;0.20;0.10;;;;;;;;;;4987433;28;20041;-82
2023/09/05 13:32:30;;;;;;;0.20;0.10;;;;;;;;;;4987628;28;20045;-81
2023/09/05 13:34:57;;;;;;;0.20;0.10;;;;;;;;;;4979506;28;20111;-81
2023/09/05 13:37:23;;;;;;;0.20;0.10;;;;;;;;;;4977064;28;20131;-82
2023/09/05 13:39:49;;;;;;;0.20;0.00;;;;;;;;;;4985584;28;20167;-81
2023/09/05 13:42:16;;;;;;;0.20;0.00;;;;;;;;;;4986087;28;20183;-83
2023/09/05 13:44:48;;;;;;;0.20;0.10;;;;;;;;;;4989003;28;20197;-87
2023/09/05 13:47:14;;;;;;;;;;;;;;;;;;5001643;28;20061;-82
2023/09/05 13:49:40;;;;;;;0.20;0.10;;;;;;;;;;4996721;28;19932;-82
2023/09/05 13:52:06;;;;;;;0.20;0.08;;;;;;;;;;4988504;28;20034;-81
2023/09/05 13:54:32;;;;;;;0.20;0.10;;;;;;;;;;4968648;28;20180;-82
2023/09/05 13:57:02;;;;;;;0.20;0.10;;;;;;;;;;4983267;28;20136;-87
2023/09/05 13:59:30;;;;;;;0.20;0.00;;;;;;;;;;4976722;28;20092;-82
2023/09/05 14:01:56;;;;;;;0.20;0.20;;;;;;;;;;4973226;28;20138;-83
2023/09/05 14:04:22;;;;;;;0.20;0.00;;;;;;;;;;4982007;28;21676;-80
2023/09/05 14:06:49;;;;;;;0.20;0.10;;;;;;;;;;4983828;28;20454;-82
2023/09/05 14:09:16;;;;;;;0.20;0.10;;;;;;;;;;4983429;28;20042;-84
2023/09/05 14:11:42;;;;;;;0.20;0.10;;;;;;;;;;4974766;28;20053;-80
2023/09/05 14:14:08;;;;;;;0.30;0.20;;;;;;;;;;4984309;28;20108;-81
2023/09/05 14:16:34;;;;;;;0.20;0.10;;;;;;;;;;4980093;28;20041;-82
2023/09/05 14:19:00;;;;;;;0.20;0.00;;;;;;;;;;4982974;28;20381;-83
2023/09/05 14:21:26;;;;;;;0.20;0.05;;;;;;;;;;4971720;28;20049;-82
2023/09/05 14:23:52;;;;;;;0.20;0.10;;;;;;;;;;4979490;28;20238;-82
2023/09/05 14:26:18;;;;;;;0.20;0.10;;;;;;;;;;5000290;28;20480;-81
2023/09/05 14:28:44;;;;;;;0.20;0.10;;;;;;;;;;4987873;28;20057;-82
2023/09/05 14:31:10;;;;;;;0.20;0.10;;;;;;;;;;4990237;28;20150;-82
2023/09/05 14:33:36;;;;;;;0.20;0.10;;;;;;;;;;4983982;28;20045;-81
2023/09/05 14:36:02;;;;;;;0.20;0.10;;;;;;;;;;4975856;28;20070;-81
2023/09/05 14:38:28;;;;;;;0.20;0.10;;;;;;;;;;4978833;28;20052;-82
2023/09/05 14:40:54;;;;;;;0.20;0.10;;;;;;;;;;4982499;28;20117;-82
2023/09/05 14:43:23;;;;;;;0.20;0.10;;;;;;;;;;4967439;28;22536;-83